Terminal Aerodrome Forecast
Issued by NWS

Home | Current Version | Previous Version | Text Only | Print | Product List | Glossary Off
Versions: 1 2 3 4 5 6 7 8 9 10 11 12 13 14 15 16 17 18 19 20 21 22 23 24 25 26 27 28 29 30 31 32

910
FTUS43 KGRB 250520
TAFRHI
TAF
KRHI 250520Z 2506/2606 13007KT P6SM BKN015 BKN040
     FM250900 14008KT P6SM BKN006 OVC012
      TEMPO 2512/2516 4SM -SHRA BR OVC003
     FM251600 16010G17KT 3SM SHRA BR SCT003 OVC006
      TEMPO 2516/2520 1 1/2SM SHRA BR OVC003
     FM252100 19009G15KT 4SM BR VCSH BKN006 OVC012
     FM260000 24008G15KT P6SM BKN015 OVC025=

USA.gov is the U.S. government's official web portal to all federal, state and local government web resources and services.